createdAt,value
2023-02-15T00:01:44.338Z,102558.00
2023-02-15T00:04:15.152Z,102545.81
2023-02-15T00:06:44.039Z,102550.34
2023-02-15T00:09:12.546Z,102545.50
2023-02-15T00:11:43.722Z,102550.72
2023-02-15T00:14:13.555Z,102553.59
2023-02-15T00:16:42.470Z,102553.44
2023-02-15T00:19:11.371Z,102547.66
2023-02-15T00:21:40.223Z,102535.44
2023-02-15T00:24:11.554Z,102535.41
2023-02-15T00:26:40.471Z,102533.16
2023-02-15T00:29:08.611Z,102532.44
2023-02-15T00:31:36.392Z,102533.19
2023-02-15T00:34:04.722Z,102535.66
2023-02-15T00:36:32.696Z,102528.75
2023-02-15T00:39:00.279Z,102532.31
2023-02-15T00:41:29.192Z,102531.31
2023-02-15T00:43:56.713Z,102520.75
2023-02-15T00:46:24.341Z,102523.91
2023-02-15T00:48:52.137Z,102514.16
2023-02-15T00:51:19.669Z,102508.84
2023-02-15T00:53:47.200Z,102502.31
2023-02-15T00:56:15.055Z,102509.72
2023-02-15T00:58:45.562Z,102505.84
2023-02-15T01:01:15.711Z,102497.16
2023-02-15T01:03:43.575Z,102497.97
2023-02-15T01:06:12.041Z,102508.44
2023-02-15T01:08:39.706Z,102505.19
2023-02-15T01:11:08.668Z,102500.72
2023-02-15T01:13:37.672Z,102506.44
2023-02-15T01:16:07.020Z,102504.41
2023-02-15T01:18:35.027Z,102500.56
2023-02-15T01:21:02.616Z,102487.38
2023-02-15T01:23:30.418Z,102483.34
2023-02-15T01:25:57.979Z,102487.22
2023-02-15T01:28:25.487Z,102487.75
2023-02-15T01:30:53.138Z,102482.75
2023-02-15T01:33:22.132Z,102485.41
2023-02-15T01:35:49.863Z,102480.22
2023-02-15T01:38:17.496Z,102481.09
2023-02-15T01:40:45.064Z,102476.53
2023-02-15T01:43:13.368Z,102470.41
2023-02-15T01:45:44.200Z,102479.91
2023-02-15T01:48:21.852Z,102470.38
2023-02-15T01:50:52.886Z,102460.41
2023-02-15T01:53:24.286Z,102456.16
2023-02-15T01:55:54.529Z,102441.09
2023-02-15T01:58:23.803Z,102446.59
2023-02-15T02:00:51.519Z,102441.00
2023-02-15T02:03:20.007Z,102436.84
2023-02-15T02:05:47.651Z,102451.44
2023-02-15T02:08:16.671Z,102449.50
2023-02-15T02:10:44.608Z,102443.13
2023-02-15T02:13:12.339Z,102434.59
2023-02-15T02:15:44.348Z,102434.88
2023-02-15T02:18:24.318Z,102445.28
2023-02-15T02:21:10.427Z,102442.09
2023-02-15T02:23:54.160Z,102449.63
2023-02-15T02:26:54.460Z,102438.44
2023-02-15T02:30:01.084Z,102443.47
2023-02-15T02:33:01.617Z,102438.13
2023-02-15T02:35:33.131Z,102428.47
2023-02-15T02:38:06.243Z,102428.13
2023-02-15T02:40:41.633Z,102430.16
2023-02-15T02:43:21.510Z,102430.81
2023-02-15T02:45:54.217Z,102426.16
2023-02-15T02:48:26.801Z,102421.28
2023-02-15T02:50:54.331Z,102416.34
2023-02-15T02:53:21.856Z,102412.97
2023-02-15T02:55:52.115Z,102406.56
2023-02-15T02:58:23.660Z,102409.91
2023-02-15T03:00:57.180Z,102403.38
2023-02-15T03:03:29.795Z,102399.84
2023-02-15T03:05:59.917Z,102396.66
2023-02-15T03:08:30.141Z,102400.13
2023-02-15T03:10:59.489Z,102392.47
2023-02-15T03:13:27.363Z,102390.28
2023-02-15T03:16:12.655Z,102396.84
2023-02-15T03:18:53.585Z,102399.63
2023-02-15T03:21:24.077Z,102398.94
2023-02-15T03:23:54.915Z,102398.38
2023-02-15T03:26:22.683Z,102393.75
2023-02-15T03:28:53.097Z,102385.25
2023-02-15T03:31:22.477Z,102381.56
2023-02-15T03:33:56.675Z,102383.06
2023-02-15T03:36:28.063Z,102372.06
2023-02-15T03:39:03.175Z,102371.03
2023-02-15T03:41:34.547Z,102365.72
2023-02-15T03:44:06.532Z,102361.53
2023-02-15T03:46:36.803Z,102366.25
2023-02-15T03:49:08.650Z,102374.19
2023-02-15T03:51:39.053Z,102368.06
2023-02-15T03:54:09.758Z,102360.06
2023-02-15T03:56:39.105Z,102362.56
2023-02-15T03:59:24.266Z,102359.06
2023-02-15T04:02:00.870Z,102360.56
2023-02-15T04:04:34.513Z,102356.81
2023-02-15T04:07:02.269Z,102360.66
2023-02-15T04:09:47.380Z,102368.84
2023-02-15T04:12:15.078Z,102372.69
2023-02-15T04:15:00.089Z,102361.88
2023-02-15T04:17:27.779Z,102353.88
2023-02-15T04:20:14.140Z,102345.22
2023-02-15T04:22:59.501Z,102347.91
2023-02-15T04:25:26.988Z,102350.09
2023-02-15T04:27:55.739Z,102346.78
2023-02-15T04:30:25.445Z,102343.28
2023-02-15T04:32:53.540Z,102338.25
2023-02-15T04:35:23.297Z,102345.09
2023-02-15T04:37:50.835Z,102334.13
2023-02-15T04:40:19.753Z,102327.28
2023-02-15T04:42:49.329Z,102332.78
2023-02-15T04:45:17.061Z,102331.63
2023-02-15T04:47:44.560Z,102331.28
2023-02-15T04:50:12.621Z,102327.13
2023-02-15T04:52:41.552Z,102328.63
2023-02-15T04:55:09.829Z,102323.78
2023-02-15T04:57:37.412Z,102317.00
2023-02-15T05:00:05.512Z,102320.31
2023-02-15T05:02:32.968Z,102317.66
2023-02-15T05:05:00.407Z,102316.13
2023-02-15T05:07:28.699Z,102318.47
2023-02-15T05:09:57.471Z,102319.28
2023-02-15T05:12:24.884Z,102327.59
2023-02-15T05:14:52.408Z,102321.78
2023-02-15T05:17:19.840Z,102328.56
2023-02-15T05:19:47.211Z,102323.59
2023-02-15T05:22:14.564Z,102321.25
2023-02-15T05:24:59.741Z,102319.25
2023-02-15T05:27:46.138Z,102313.78
2023-02-15T05:30:15.139Z,102315.94
2023-02-15T05:32:42.968Z,102309.47
2023-02-15T05:35:15.666Z,102309.63
2023-02-15T05:37:43.133Z,102310.16
2023-02-15T05:40:11.368Z,102308.63
2023-02-15T05:42:40.334Z,102307.97
2023-02-15T05:45:08.675Z,102300.97
2023-02-15T05:47:36.248Z,102297.31
2023-02-15T05:50:03.784Z,102302.13
2023-02-15T05:52:31.304Z,102299.31
2023-02-15T05:54:59.947Z,102287.16
2023-02-15T05:57:27.363Z,102288.97
2023-02-15T05:59:56.337Z,102290.31
2023-02-15T06:02:23.891Z,102287.97
2023-02-15T06:04:51.505Z,102289.13
2023-02-15T06:07:19.017Z,102281.78
2023-02-15T06:09:46.484Z,102286.97
2023-02-15T06:12:13.943Z,102287.63
2023-02-15T06:14:41.350Z,102284.31
2023-02-15T06:17:10.417Z,102284.63
2023-02-15T06:19:37.891Z,102290.47
2023-02-15T06:22:05.426Z,102287.78
2023-02-15T06:24:32.802Z,102282.81
2023-02-15T06:27:00.332Z,102288.97
2023-02-15T06:29:28.092Z,102288.47
2023-02-15T06:31:55.684Z,102297.84
2023-02-15T06:34:24.476Z,102298.94
2023-02-15T06:36:51.979Z,102300.97
2023-02-15T06:39:19.438Z,102300.06
2023-02-15T06:41:47.032Z,102295.06
2023-02-15T06:44:14.594Z,102293.28
2023-02-15T06:46:44.332Z,102287.44
2023-02-15T06:49:12.371Z,102286.13
2023-02-15T06:51:41.493Z,102298.94
2023-02-15T06:54:09.957Z,102291.22
2023-02-15T06:56:37.854Z,102280.91
2023-02-15T06:59:08.678Z,102284.97
2023-02-15T07:01:38.359Z,102291.09
2023-02-15T07:04:06.807Z,102292.91
2023-02-15T07:06:34.805Z,102285.81
2023-02-15T07:09:09.021Z,102281.41
2023-02-15T07:11:56.169Z,102272.88
2023-02-15T07:14:27.632Z,102268.06
2023-02-15T07:16:57.601Z,102265.19
2023-02-15T07:19:26.177Z,102256.22
2023-02-15T07:21:55.970Z,102271.03
2023-02-15T07:24:30.604Z,102255.16
2023-02-15T07:26:59.379Z,102259.63
2023-02-15T07:35:15.456Z,102265.13
2023-02-15T07:40:54.139Z,102254.03
2023-02-15T07:43:22.243Z,102256.31
2023-02-15T07:46:23.035Z,102251.06
2023-02-15T07:51:33.764Z,102255.75
2023-02-15T07:54:01.973Z,102265.63
2023-02-15T07:56:37.033Z,102262.94
2023-02-15T07:59:06.360Z,102249.34
2023-02-15T08:01:36.883Z,102254.47
2023-02-15T08:04:06.775Z,102260.81
2023-02-15T08:06:36.416Z,102244.03
2023-02-15T08:09:17.026Z,102243.34
2023-02-15T08:11:46.373Z,102239.81
2023-02-15T08:14:16.111Z,102246.28
2023-02-15T08:16:45.668Z,102240.84
2023-02-15T08:19:16.118Z,102236.53
2023-02-15T08:21:45.489Z,102237.03
2023-02-15T08:24:17.434Z,102237.03
2023-02-15T08:26:47.863Z,102231.88
2023-02-15T08:29:16.924Z,102241.03
2023-02-15T08:31:45.272Z,102239.38
2023-02-15T08:34:17.228Z,102239.88
2023-02-15T08:36:52.553Z,102243.53
2023-02-15T08:39:24.834Z,102227.53
2023-02-15T08:41:55.068Z,102222.72
2023-02-15T08:44:25.155Z,102227.38
2023-02-15T08:46:54.400Z,102220.72
2023-02-15T08:49:26.154Z,102216.56
2023-02-15T08:51:58.035Z,102214.06
2023-02-15T08:54:28.904Z,102207.75
2023-02-15T08:57:06.090Z,102195.75
2023-02-15T08:59:54.609Z,102193.75
2023-02-15T09:21:16.215Z,102215.06
2023-02-15T09:24:22.654Z,102209.75
2023-02-15T10:33:50.541Z,102198.41
2023-02-15T11:18:23.853Z,102166.28
2023-02-15T12:17:29.405Z,102093.41
2023-02-15T12:20:44.378Z,102080.94
2023-02-15T12:26:13.640Z,102082.69
2023-02-15T12:29:14.908Z,102081.03
2023-02-15T12:31:46.771Z,102073.50
2023-02-15T12:34:20.046Z,102072.13
2023-02-15T12:36:51.716Z,102070.84
2023-02-15T12:39:23.240Z,102063.38
2023-02-15T12:42:04.913Z,102063.56
2023-02-15T12:44:34.025Z,102044.88
2023-02-15T12:47:04.668Z,102052.63
2023-02-15T12:49:33.718Z,102052.06
2023-02-15T12:52:05.077Z,102047.16
2023-02-15T12:54:39.626Z,102050.19
2023-02-15T12:57:23.959Z,102044.22
2023-02-15T12:59:53.429Z,102049.84
2023-02-15T13:02:30.456Z,102043.66
2023-02-15T13:04:59.712Z,102036.34
2023-02-15T13:07:34.509Z,102030.81
2023-02-15T13:10:02.557Z,102031.94
2023-02-15T13:12:34.460Z,102022.81
2023-02-15T13:15:03.507Z,102013.41
2023-02-15T13:17:35.228Z,102012.19
2023-02-15T13:20:08.626Z,102002.97
2023-02-15T13:22:43.412Z,102010.41
2023-02-15T13:25:16.740Z,102018.91
2023-02-15T13:27:46.411Z,102011.22
2023-02-15T13:30:28.239Z,102010.88
2023-02-15T13:32:59.986Z,102008.44
2023-02-15T13:35:31.859Z,102004.88
2023-02-15T13:38:20.557Z,101995.06
2023-02-15T13:40:51.362Z,101999.88
2023-02-15T13:43:33.388Z,101999.34
2023-02-15T13:46:11.412Z,101996.69
2023-02-15T13:48:51.028Z,101991.66
2023-02-15T13:51:23.880Z,101993.34
2023-02-15T13:54:17.721Z,101989.69
2023-02-15T13:56:58.648Z,101988.13
2023-02-15T13:59:41.952Z,101995.38
2023-02-15T14:02:30.649Z,101986.13
2023-02-15T14:05:12.258Z,101988.69
2023-02-15T14:07:52.393Z,101980.16
2023-02-15T14:10:34.031Z,101982.13
2023-02-15T14:13:26.112Z,101979.63
2023-02-15T14:15:57.318Z,101972.44
2023-02-15T14:18:29.479Z,101974.94
2023-02-15T14:21:06.922Z,101971.41
2023-02-15T14:23:50.391Z,101968.78
2023-02-15T14:26:25.865Z,101962.34
2023-02-15T14:28:58.734Z,101960.31
2023-02-15T14:31:31.138Z,101957.47
2023-02-15T14:33:59.735Z,101962.47
2023-02-15T14:36:31.234Z,101958.09
2023-02-15T14:39:29.255Z,101956.25
2023-02-15T14:41:59.821Z,101962.09
2023-02-15T14:44:36.453Z,101953.44
2023-02-15T14:47:07.249Z,101961.25
2023-02-15T14:49:37.983Z,101966.34
2023-02-15T14:52:08.129Z,101967.31
2023-02-15T14:54:57.583Z,101966.25
2023-02-15T14:57:35.821Z,101965.91
2023-02-15T15:00:23.158Z,101963.81
2023-02-15T15:02:52.264Z,101970.19
2023-02-15T15:05:22.579Z,101961.13
2023-02-15T15:07:52.227Z,101964.50
2023-02-15T15:10:45.048Z,101959.72
2023-02-15T15:13:43.769Z,101965.47
2023-02-15T15:16:31.854Z,101956.63
2023-02-15T15:19:00.692Z,101955.16
2023-02-15T15:21:54.279Z,101964.84
2023-02-15T15:24:53.836Z,101966.13
2023-02-15T15:27:57.015Z,101961.56
2023-02-15T15:30:55.580Z,101965.50
2023-02-15T15:33:51.960Z,101961.38
2023-02-15T15:36:43.605Z,101947.75
2023-02-15T15:39:24.460Z,101950.06
2023-02-15T15:41:55.754Z,101954.75
2023-02-15T15:44:54.000Z,101951.69
2023-02-15T15:47:33.886Z,101956.25
2023-02-15T15:50:01.819Z,101960.94
2023-02-15T15:52:32.605Z,101958.28
2023-02-15T15:55:06.707Z,101957.06
2023-02-15T15:57:37.488Z,101956.63
2023-02-15T16:00:07.024Z,101950.63
2023-02-15T16:02:36.179Z,101961.56
2023-02-15T16:05:10.565Z,101947.31
2023-02-15T16:07:38.143Z,101948.53
2023-02-15T16:10:08.016Z,101945.06
2023-02-15T16:12:37.583Z,101943.19
2023-02-15T16:15:14.319Z,101937.81
2023-02-15T16:17:43.894Z,101934.13
2023-02-15T16:20:19.611Z,101931.19
2023-02-15T16:22:49.010Z,101935.09
2023-02-15T16:25:29.962Z,101938.78
2023-02-15T16:27:57.601Z,101939.47
2023-02-15T16:30:29.632Z,101930.63
2023-02-15T16:33:06.740Z,101933.31
2023-02-15T16:35:35.166Z,101928.16
2023-02-15T16:38:03.464Z,101929.78
2023-02-15T16:40:53.739Z,101927.72
2023-02-15T16:43:25.447Z,101919.47
2023-02-15T16:45:53.096Z,101920.75
2023-02-15T16:48:24.133Z,101927.13
2023-02-15T16:50:54.061Z,101923.56
2023-02-15T16:53:24.593Z,101921.56
2023-02-15T16:55:54.020Z,101923.81
2023-02-15T16:58:28.178Z,101921.97
2023-02-15T17:00:58.625Z,101919.03
2023-02-15T17:03:28.084Z,101927.25
2023-02-15T17:05:57.006Z,101922.75
2023-02-15T17:08:30.048Z,101918.22
2023-02-15T17:11:14.299Z,101922.38
2023-02-15T17:13:43.960Z,101921.97
2023-02-15T17:16:30.061Z,101912.59
2023-02-15T17:19:00.278Z,101908.75
2023-02-15T17:21:30.261Z,101899.09
2023-02-15T17:24:03.551Z,101901.22
2023-02-15T17:26:33.815Z,101898.50
2023-02-15T17:29:05.027Z,101897.66
2023-02-15T17:31:34.335Z,101889.03
2023-02-15T17:34:03.934Z,101897.28
2023-02-15T17:36:32.754Z,101892.28
2023-02-15T17:39:07.595Z,101888.19
2023-02-15T17:41:38.046Z,101894.13
2023-02-15T17:44:05.718Z,101896.47
2023-02-15T17:46:35.964Z,101893.16
2023-02-15T17:49:05.416Z,101896.47
2023-02-15T17:51:35.424Z,101901.44
2023-02-15T17:54:19.663Z,101893.19
2023-02-15T17:56:47.187Z,101904.53
2023-02-15T17:59:15.160Z,101900.34
2023-02-15T18:02:03.906Z,101899.50
2023-02-15T18:04:50.823Z,101880.59
2023-02-15T18:07:36.926Z,101879.25
2023-02-15T18:10:22.619Z,101880.47
2023-02-15T18:12:50.056Z,101886.81
2023-02-15T18:15:17.466Z,101887.78
2023-02-15T18:17:47.706Z,101894.31
2023-02-15T18:20:20.683Z,101892.22
2023-02-15T18:22:48.415Z,101894.47
2023-02-15T18:25:17.949Z,101902.06
2023-02-15T18:27:45.714Z,101906.13
2023-02-15T18:30:17.192Z,101896.94
2023-02-15T18:32:45.855Z,101896.34
2023-02-15T18:35:16.249Z,101896.34
2023-02-15T18:37:45.587Z,101900.91
2023-02-15T18:40:17.276Z,101899.69
2023-02-15T18:42:47.968Z,101894.75
2023-02-15T18:45:18.303Z,101907.53
2023-02-15T18:47:46.512Z,101900.06
2023-02-15T18:50:14.470Z,101907.91
2023-02-15T18:52:42.473Z,101900.91
2023-02-15T18:55:18.354Z,101904.56
2023-02-15T18:57:46.117Z,101897.56
2023-02-15T19:00:20.225Z,101885.16
2023-02-15T19:02:47.889Z,101883.50
2023-02-15T19:05:16.127Z,101882.53
2023-02-15T19:07:45.427Z,101884.38
2023-02-15T19:10:18.654Z,101877.69
2023-02-15T19:12:46.657Z,101875.13
2023-02-15T19:15:17.890Z,101870.19
2023-02-15T19:17:45.461Z,101863.13
2023-02-15T19:20:17.353Z,101874.69
2023-02-15T19:22:45.831Z,101866.84
2023-02-15T19:25:18.668Z,101874.06
2023-02-15T19:27:46.725Z,101862.53
2023-02-15T19:30:17.441Z,101861.25
2023-02-15T19:32:45.105Z,101864.78
2023-02-15T19:35:15.594Z,101854.22
2023-02-15T19:37:45.152Z,101848.84
2023-02-15T19:40:20.930Z,101847.91
2023-02-15T19:42:48.568Z,101855.09
2023-02-15T19:45:17.043Z,101851.22
2023-02-15T19:47:44.462Z,101858.22
2023-02-15T19:50:16.469Z,101848.84
2023-02-15T19:52:44.573Z,101848.22
2023-02-15T19:55:23.391Z,101855.19
2023-02-15T19:57:52.102Z,101846.44
2023-02-15T20:00:22.695Z,101840.31
2023-02-15T20:02:50.502Z,101840.31
2023-02-15T20:05:17.919Z,101837.78
2023-02-15T20:07:47.504Z,101834.03
2023-02-15T20:10:18.201Z,101824.53
2023-02-15T20:12:47.502Z,101825.16
2023-02-15T20:15:20.285Z,101832.22
2023-02-15T20:17:48.201Z,101836.13
2023-02-15T20:20:16.260Z,101838.41
2023-02-15T20:22:45.463Z,101840.47
2023-02-15T20:25:17.349Z,101842.13
2023-02-15T20:27:46.214Z,101844.13
2023-02-15T20:30:21.619Z,101846.19
2023-02-15T20:32:49.394Z,101844.34
2023-02-15T20:35:19.019Z,101854.19
2023-02-15T20:37:47.526Z,101865.09
2023-02-15T20:40:22.367Z,101861.84
2023-02-15T20:42:51.590Z,101856.28
2023-02-15T20:45:21.513Z,101868.59
2023-02-15T20:47:51.788Z,101863.69
2023-02-15T20:50:21.056Z,101858.72
2023-02-15T20:52:49.598Z,101854.81
2023-02-15T20:55:19.121Z,101854.38
2023-02-15T20:57:46.843Z,101854.38
2023-02-15T21:00:19.018Z,101843.25
2023-02-15T21:02:47.831Z,101844.28
2023-02-15T21:05:17.954Z,101840.16
2023-02-15T21:07:50.795Z,101832.84
2023-02-15T21:10:20.330Z,101829.13
2023-02-15T21:12:48.457Z,101822.25
2023-02-15T21:15:29.256Z,101837.69
2023-02-15T21:17:58.159Z,101829.94
2023-02-15T21:20:26.130Z,101830.19
2023-02-15T21:22:53.948Z,101835.25
2023-02-15T21:25:27.158Z,101833.81
2023-02-15T21:27:55.179Z,101832.19
2023-02-15T21:30:56.462Z,101822.31
2023-02-15T21:33:42.816Z,101823.13
2023-02-15T21:36:29.906Z,101819.84
2023-02-15T21:39:08.495Z,101818.19
2023-02-15T21:44:55.027Z,101822.84
2023-02-15T21:47:44.168Z,101823.41
2023-02-15T21:50:32.752Z,101819.44
2023-02-15T21:53:16.360Z,101819.91
2023-02-15T21:55:50.577Z,101819.06
2023-02-15T21:58:28.641Z,101818.03
2023-02-15T22:00:57.853Z,101818.22
2023-02-15T22:03:31.703Z,101815.13
2023-02-15T22:22:57.340Z,101819.09
2023-02-15T22:34:18.896Z,101806.69
2023-02-15T22:36:47.852Z,101810.38
2023-02-15T22:39:15.620Z,101805.88
2023-02-15T22:41:54.470Z,101808.31
2023-02-15T22:44:26.942Z,101813.91
2023-02-15T22:47:08.519Z,101819.59
2023-02-15T22:49:36.065Z,101814.44
2023-02-15T22:52:07.380Z,101816.66
2023-02-15T22:54:34.859Z,101812.88
2023-02-15T22:57:02.349Z,101814.19
2023-02-15T22:59:33.962Z,101808.03
2023-02-15T23:02:03.495Z,101810.56
2023-02-15T23:04:31.372Z,101802.03
2023-02-15T23:07:00.890Z,101806.38
2023-02-15T23:09:29.980Z,101802.72
2023-02-15T23:11:57.992Z,101802.72
2023-02-15T23:14:28.988Z,101804.75
2023-02-15T23:16:56.611Z,101797.09
2023-02-15T23:19:24.284Z,101797.13
2023-02-15T23:21:51.930Z,101799.50
2023-02-15T23:24:22.509Z,101793.25
2023-02-15T23:26:51.785Z,101790.47
2023-02-15T23:29:22.144Z,101788.91
2023-02-15T23:31:51.386Z,101782.38
2023-02-15T23:34:21.741Z,101785.22
2023-02-15T23:36:49.366Z,101788.66
2023-02-15T23:39:37.475Z,101784.50
2023-02-15T23:42:10.014Z,101769.59
2023-02-15T23:44:38.047Z,101773.75
2023-02-15T23:47:06.276Z,101769.00
2023-02-15T23:49:33.876Z,101771.53
2023-02-15T23:52:01.920Z,101770.53
2023-02-15T23:54:29.462Z,101764.09
2023-02-15T23:56:59.317Z,101765.66
2023-02-15T23:59:30.610Z,101770.72
